KALO/ALO METAR and TAF weather

Enter ICAO airport designator
Station Type Date Time Source
KALO METAR 2018/10/21 05:54 UTC NOAA

KALO 210554Z AUTO 00000KT 10SM CLR M03/M05 A3037 RMK AO2 SLP293 T10331050 10017 21039 400941039 50003


Station Type Date Time Source
KALO Decoded METAR 2018/10/21 05:54 UTC NOAA

WATERLOO MUNICIPAL AIRPORT, IA, United States (KALO) 42-33N 92-24W 264M
Oct 21, 2018 - 01:54 AM EDT / 2018.10.21 0554 UTC
Wind: Calm:0
Visibility: 10 mile(s):0
Sky conditions: clear
Temperature: 26.1 F (-3.3 C)
Dew Point: 23.0 F (-5.0 C)
Relative Humidity: 87%
Pressure (altimeter): 30.37 in. Hg (1028 hPa)
Pressure tendency: 0.01 inches (0.3 hPa) higher than three hours ago
ob: KALO 210554Z AUTO 00000KT 10SM CLR M03/M05 A3037 RMK AO2 SLP293 T10331050 10017 21039 400941039 50003
cycle: 6

Station Type Date Time Source
KALO TAF 2018/10/21 06:22 UTC NOAA

TAF KALO 210520Z 2106/2206 VRB03KT P6SM SKC
FM211300 20008KT P6SM SKC
FM211600 21015G22KT P6SM SKC
FM220000 19006KT P6SM FEW250


Example: see airport list